Time;durP1;ratioP1;P1;durP2;ratioP2;P2;SDS_P1;SDS_P2;PMS_P1;PMS_P2;Temp;Humidity;BMP_temperature;BMP_pressure;BME280_temperature;BME280_humidity;BME280_pressure;Samples;Min_cycle;Max_cycle;Signal;HPM_P1;HPM_P2
2021/09/23 00:01:02;;;;;;;;;;;;;;;11.09;80.84;98836.96;1680878;84;26691;-88
2021/09/23 00:05:59;;;;;;;;;;;;;;;11.02;80.83;98826.50;1686954;83;20235;-88
2021/09/23 00:08:25;;;;;;;;;;;;;;;11.03;80.84;98820.80;1672213;84;24816;-88
2021/09/23 00:10:51;;;;;;;;;;;;;;;11.05;80.84;98823.70;1679065;83;20250;-89
2021/09/23 00:13:17;;;;;;;;;;;;;;;11.07;80.86;98817.06;1680839;83;21160;-88
2021/09/23 00:15:43;;;;;;;;;;;;;;;11.06;80.86;98816.69;1686211;83;20817;-88
2021/09/23 00:18:11;;;;;;;;;;;;;;;11.07;80.84;98813.98;1682486;83;20307;-88
2021/09/23 00:20:40;;;;;;;;;;;;;;;11.06;80.84;98812.29;1681575;83;24832;-88
2021/09/23 00:23:07;;;;;;;;;;;;;;;11.07;80.84;98804.81;1686941;83;21989;-88
2021/09/23 00:25:33;;;;;;;;;;;;;;;11.05;80.85;98803.22;1684986;83;25983;-89
2021/09/23 00:28:00;;;;;;;;;;;;;;;11.04;80.85;98794.52;1680677;83;24472;-88
2021/09/23 00:30:34;;;;;;;;;;;;;;;11.03;80.87;98786.75;1687827;83;20160;-88
2021/09/23 00:33:00;;;;;;;;;;;;;;;10.99;80.84;98791.36;1687474;83;25021;-88
2021/09/23 00:35:26;;;;;;;;;;;;;;;10.97;80.84;98793.70;1687363;83;20774;-89
2021/09/23 00:37:52;;;;;;;;;;;;;;;10.90;80.84;98796.75;1685045;83;26666;-88
2021/09/23 00:40:21;;;;;;;;;;;;;;;10.91;80.87;98792.32;1686432;83;24424;-89
2021/09/23 00:42:49;;;;;;;;;;;;;;;10.91;80.89;98789.23;1671521;84;20311;-88
2021/09/23 00:45:22;;;;;;;;;;;;;;;10.79;80.90;98774.82;1671240;83;24874;-88
2021/09/23 00:47:49;;;;;;;;;;;;;;;10.82;80.91;98787.70;1675303;83;22231;-89
2021/09/23 00:50:19;;;;;;;;;;;;;;;10.81;80.96;98800.41;1686067;83;25986;-88
2021/09/23 00:52:45;;;;;;;;;;;;;;;10.83;80.99;98795.92;1687837;83;24778;-89
2021/09/23 00:55:12;;;;;;;;;;;;;;;10.81;81.03;98795.17;1687241;83;20329;-88
2021/09/23 00:57:45;;;;;;;;;;;;;;;10.84;81.07;98795.84;1675151;83;24797;-89
2021/09/23 01:00:13;;;;;;;;;;;;;;;10.85;81.11;98788.36;1637408;84;21875;-88
2021/09/23 01:02:41;;;;;;;;;;;;;;;10.90;81.12;98784.13;1687210;83;26014;-88
2021/09/23 01:05:14;;;;;;;;;;;;;;;10.94;81.17;98796.06;1691697;83;24561;-89
2021/09/23 01:07:45;;;;;;;;;;;;;;;10.92;81.19;98794.01;1688218;83;20325;-88
2021/09/23 01:10:11;;;;;;;;;;;;;;;10.90;81.20;98794.59;1692394;83;24827;-88
2021/09/23 01:12:37;;;;;;;;;;;;;;;10.88;81.22;98788.61;1688881;83;21962;-88
2021/09/23 01:15:04;;;;;;;;;;;;;;;10.91;81.27;98790.55;1691549;83;21196;-88
2021/09/23 01:17:30;;;;;;;;;;;;;;;10.93;81.35;98784.38;1688630;83;24464;-88
2021/09/23 01:19:56;;;;;;;;;;;;;;;10.96;81.40;98769.79;1684847;83;20419;-88
2021/09/23 01:22:22;;;;;;;;;;;;;;;10.95;81.44;98770.26;1688849;83;20254;-88
2021/09/23 01:24:48;;;;;;;;;;;;;;;10.99;81.48;98772.19;1686829;83;22051;-89
2021/09/23 01:27:14;;;;;;;;;;;;;;;10.96;81.51;98773.25;1689092;83;25968;-88
2021/09/23 01:29:41;;;;;;;;;;;;;;;10.94;81.51;98772.97;1687804;83;24700;-89
2021/09/23 01:32:16;;;;;;;;;;;;;;;10.96;81.53;98771.94;1662006;84;20304;-88
2021/09/23 01:34:42;;;;;;;;;;;;;;;10.98;81.59;98766.11;1679337;84;25075;-88
2021/09/23 01:37:09;;;;;;;;;;;;;;;11.01;81.64;98755.45;1683862;84;20393;-88
2021/09/23 01:39:35;;;;;;;;;;;;;;;11.05;81.69;98752.98;1683463;83;26003;-88
2021/09/23 01:42:03;;;;;;;;;;;;;;;11.07;81.77;98754.20;1679659;84;24484;-88
2021/09/23 01:44:29;;;;;;;;;;;;;;;11.07;81.81;98757.66;1677016;84;20277;-88
2021/09/23 01:46:55;;;;;;;;;;;;;;;11.07;81.85;98760.28;1684574;84;20276;-88
2021/09/23 01:49:21;;;;;;;;;;;;;;;11.08;81.86;98750.16;1704693;82;21880;-88
2021/09/23 01:51:47;;;;;;;;;;;;;;;11.09;81.87;98745.75;1677240;84;26044;-88
2021/09/23 01:54:25;;;;;;;;;;;;;;;11.07;81.89;98741.95;1682662;84;24404;-88
2021/09/23 01:56:53;;;;;;;;;;;;;;;11.10;81.91;98747.44;1678742;84;20247;-88
2021/09/23 01:59:20;;;;;;;;;;;;;;;11.08;81.94;98742.77;1679497;84;24942;-88
2021/09/23 02:01:47;;;;;;;;;;;;;;;11.06;81.94;98740.73;1682334;84;22002;-88
2021/09/23 02:04:13;;;;;;;;;;;;;;;11.09;81.96;98739.20;1680884;84;26325;-88
2021/09/23 02:06:42;;;;;;;;;;;;;;;11.12;81.94;98728.55;1656252;84;24539;-88
2021/09/23 02:09:09;;;;;;;;;;;;;;;11.15;81.94;98717.38;1651517;85;20273;-89
2021/09/23 02:11:35;;;;;;;;;;;;;;;11.12;81.94;98719.38;1651768;85;24667;-89
2021/09/23 02:14:01;;;;;;;;;;;;;;;11.06;81.92;98723.71;1650138;84;21961;-88
2021/09/23 02:16:27;;;;;;;;;;;;;;;11.01;81.91;98722.72;1657902;84;26043;-88
2021/09/23 02:18:53;;;;;;;;;;;;;;;11.00;81.90;98720.19;1654598;84;24625;-88
2021/09/23 02:21:19;;;;;;;;;;;;;;;10.93;81.85;98716.30;1675971;84;20226;-88
2021/09/23 02:23:45;;;;;;;;;;;;;;;10.89;81.83;98713.89;1683166;83;20258;-88
2021/09/23 02:26:11;;;;;;;;;;;;;;;10.83;81.81;98713.45;1682087;83;22062;-89
2021/09/23 02:28:39;;;;;;;;;;;;;;;10.78;81.83;98713.77;1686934;84;20963;-88
2021/09/23 02:31:05;;;;;;;;;;;;;;;10.76;81.84;98714.33;1682874;83;24444;-89
2021/09/23 02:33:31;;;;;;;;;;;;;;;10.73;81.84;98709.77;1687079;83;20224;-89
2021/09/23 02:35:57;;;;;;;;;;;;;;;10.75;81.87;98701.33;1686288;83;24820;-89
2021/09/23 02:38:23;;;;;;;;;;;;;;;10.72;81.89;98702.86;1707292;82;22203;-88
2021/09/23 02:40:52;;;;;;;;;;;;;;;10.69;81.90;98693.91;1685010;83;26802;-88
2021/09/23 02:43:18;;;;;;;;;;;;;;;10.72;81.97;98693.23;1682035;84;24459;-89
2021/09/23 02:45:44;;;;;;;;;;;;;;;10.74;81.99;98691.36;1680036;83;20451;-88
2021/09/23 02:48:10;;;;;;;;;;;;;;;10.74;82.04;98688.73;1640027;86;20249;-89
2021/09/23 02:50:36;;;;;;;;;;;;;;;10.74;82.10;98697.91;1687765;84;20327;-88
2021/09/23 02:53:02;;;;;;;;;;;;;;;10.78;82.16;98701.98;1684265;83;21061;-89
2021/09/23 02:55:28;;;;;;;;;;;;;;;10.83;82.23;98695.13;1687819;83;20846;-88
2021/09/23 02:57:54;;;;;;;;;;;;;;;10.89;82.27;98685.56;1686153;83;20488;-88
2021/09/23 03:00:21;;;;;;;;;;;;;;;10.89;82.30;98690.80;1688707;83;25524;-88
2021/09/23 03:02:47;;;;;;;;;;;;;;;10.91;82.35;98688.89;1682007;83;22081;-88
2021/09/23 03:05:13;;;;;;;;;;;;;;;10.90;82.39;98690.70;1683136;83;25934;-88
2021/09/23 03:07:39;;;;;;;;;;;;;;;10.88;82.42;98679.95;1682424;83;24509;-88
2021/09/23 03:10:08;;;;;;;;;;;;;;;10.88;82.46;98679.95;1684518;83;20485;-88
2021/09/23 03:12:37;;;;;;;;;;;;;;;10.93;82.47;98682.25;1685001;83;25404;-88
2021/09/23 03:15:04;;;;;;;;;;;;;;;10.96;82.49;98677.67;1680056;83;22041;-88
2021/09/23 03:17:30;;;;;;;;;;;;;;;10.99;82.52;98672.21;1686110;83;25941;-88
2021/09/23 03:19:56;;;;;;;;;;;;;;;10.99;82.53;98670.06;1689035;83;20239;-88
2021/09/23 03:22:22;;;;;;;;;;;;;;;10.98;82.56;98678.85;1683929;83;20292;-88
2021/09/23 03:24:48;;;;;;;;;;;;;;;10.96;82.57;98680.75;1686785;83;20779;-88
2021/09/23 03:27:21;;;;;;;;;;;;;;;10.97;82.59;98683.25;1684324;83;22710;-88
2021/09/23 03:29:50;;;;;;;;;;;;;;;11.00;82.62;98686.14;1683854;85;26075;-88
2021/09/23 03:32:16;;;;;;;;;;;;;;;10.97;82.62;98681.94;1683564;84;25218;-87
2021/09/23 03:34:44;;;;;;;;;;;;;;;10.93;82.65;98679.17;1684007;85;20898;-88
2021/09/23 03:37:10;;;;;;;;;;;;;;;10.91;82.65;98677.11;1683368;83;24719;-88
2021/09/23 03:39:36;;;;;;;;;;;;;;;10.95;82.68;98673.37;1674209;84;21875;-88
2021/09/23 03:42:02;;;;;;;;;;;;;;;11.00;82.72;98672.58;1683438;84;26679;-88
2021/09/23 03:44:28;;;;;;;;;;;;;;;11.04;82.76;98679.75;1682640;84;24450;-88
2021/09/23 03:46:55;;;;;;;;;;;;;;;11.07;82.80;98674.32;1681268;83;20838;-88
2021/09/23 03:49:30;;;;;;;;;;;;;;;11.07;82.80;98678.25;1685026;83;24876;-88
2021/09/23 03:51:56;;;;;;;;;;;;;;;11.07;82.77;98680.87;1683357;84;22082;-88
2021/09/23 03:54:26;;;;;;;;;;;;;;;11.06;82.78;98678.72;1682517;83;25953;-87
2021/09/23 03:56:58;;;;;;;;;;;;;;;11.04;82.76;98677.13;1684561;84;24623;-87
2021/09/23 03:59:24;;;;;;;;;;;;;;;11.02;82.75;98679.84;1684736;84;20527;-88
2021/09/23 04:01:50;;;;;;;;;;;;;;;11.02;82.77;98671.98;1683931;83;24807;-87
2021/09/23 04:04:16;;;;;;;;;;;;;;;11.02;82.77;98666.75;1684161;84;21869;-88
2021/09/23 04:06:43;;;;;;;;;;;;;;;10.97;82.75;98679.79;1684955;84;25992;-88
2021/09/23 04:09:12;;;;;;;;;;;;;;;10.98;82.72;98669.69;1665601;85;24439;-88
2021/09/23 04:11:39;;;;;;;;;;;;;;;10.97;82.72;98670.16;1680481;84;20581;-88
2021/09/23 04:14:05;;;;;;;;;;;;;;;10.94;82.72;98667.76;1682154;84;24802;-88
2021/09/23 04:16:31;;;;;;;;;;;;;;;10.95;82.71;98669.44;1682519;84;21948;-89
2021/09/23 04:18:57;;;;;;;;;;;;;;;10.96;82.72;98666.36;1682202;84;26096;-88
2021/09/23 04:21:23;;;;;;;;;;;;;;;10.98;82.76;98661.36;1682320;85;24475;-88
2021/09/23 04:23:49;;;;;;;;;;;;;;;10.95;82.76;98655.50;1683278;83;20278;-88
2021/09/23 04:26:17;;;;;;;;;;;;;;;11.00;82.80;98652.10;1684903;83;24810;-89
2021/09/23 04:28:44;;;;;;;;;;;;;;;10.97;82.80;98649.20;1681999;84;22056;-88
2021/09/23 04:31:10;;;;;;;;;;;;;;;10.95;82.78;98656.34;1683622;84;20994;-88
2021/09/23 04:33:36;;;;;;;;;;;;;;;10.95;82.74;98655.50;1684273;84;24424;-88
2021/09/23 04:36:02;;;;;;;;;;;;;;;10.94;82.73;98652.05;1684390;83;20883;-88
2021/09/23 04:38:28;;;;;;;;;;;;;;;10.97;82.71;98655.75;1683347;84;24827;-88
2021/09/23 04:40:54;;;;;;;;;;;;;;;11.00;82.75;98652.94;1664616;83;20231;-88
2021/09/23 04:43:21;;;;;;;;;;;;;;;11.05;82.76;98648.23;1689400;83;25902;-88
2021/09/23 04:45:47;;;;;;;;;;;;;;;11.09;82.77;98646.22;1675907;84;24351;-88
2021/09/23 04:48:13;;;;;;;;;;;;;;;11.05;82.77;98645.61;1688764;83;20562;-88
2021/09/23 04:50:40;;;;;;;;;;;;;;;11.07;82.75;98662.53;1689450;83;24766;-88
2021/09/23 04:53:06;;;;;;;;;;;;;;;11.06;82.72;98662.16;1687590;83;22069;-88
2021/09/23 04:55:32;;;;;;;;;;;;;;;11.04;82.67;98658.80;1714145;82;26211;-88
2021/09/23 04:58:04;;;;;;;;;;;;;;;11.06;82.65;98653.00;1690097;83;20859;-88
2021/09/23 05:00:26;;;;;;;;;;;;;;;11.07;82.64;98652.06;1690709;82;20209;-88
2021/09/23 05:02:53;;;;;;;;;;;;;;;11.09;82.64;98652.30;1686656;83;24945;-88
2021/09/23 05:05:22;;;;;;;;;;;;;;;11.09;82.67;98652.77;1683434;84;22071;-88
2021/09/23 05:07:48;;;;;;;;;;;;;;;11.09;82.66;98639.67;1663711;84;26004;-88
2021/09/23 05:10:14;;;;;;;;;;;;;;;11.07;82.65;98640.27;1689761;83;20819;-88
2021/09/23 05:12:40;;;;;;;;;;;;;;;11.10;82.65;98638.27;1688201;83;20260;-88
2021/09/23 05:15:07;;;;;;;;;;;;;;;11.16;82.69;98644.41;1689230;83;24734;-88
2021/09/23 05:17:33;;;;;;;;;;;;;;;11.15;82.72;98639.27;1690374;83;22048;-88
2021/09/23 05:19:59;;;;;;;;;;;;;;;11.22;82.75;98640.52;1687071;83;20966;-88
2021/09/23 05:22:27;;;;;;;;;;;;;;;11.23;82.78;98632.56;1686847;83;24479;-88
2021/09/23 05:24:58;;;;;;;;;;;;;;;11.25;82.83;98636.37;1690183;83;20254;-88
2021/09/23 05:27:24;;;;;;;;;;;;;;;11.23;82.82;98635.66;1689081;83;25243;-88
2021/09/23 05:29:56;;;;;;;;;;;;;;;11.24;82.79;98636.84;1689232;83;22680;-88
2021/09/23 05:32:24;;;;;;;;;;;;;;;11.24;82.78;98630.29;1690541;83;25895;-88
2021/09/23 05:34:50;;;;;;;;;;;;;;;11.24;82.76;98631.59;1687163;82;24269;-89
2021/09/23 05:37:16;;;;;;;;;;;;;;;11.21;82.75;98630.98;1690452;84;20305;-88
2021/09/23 05:39:42;;;;;;;;;;;;;;;11.21;82.74;98632.30;1690738;83;20242;-88
2021/09/23 05:42:08;;;;;;;;;;;;;;;11.19;82.71;98631.08;1688237;83;20311;-88
2021/09/23 05:44:34;;;;;;;;;;;;;;;11.18;82.71;98629.40;1690163;83;26053;-88
2021/09/23 05:47:00;;;;;;;;;;;;;;;11.22;82.70;98633.97;1688982;83;20864;-88
2021/09/23 05:49:26;;;;;;;;;;;;;;;11.18;82.66;98633.33;1684444;83;20336;-88
2021/09/23 05:51:52;;;;;;;;;;;;;;;11.19;82.64;98636.32;1689500;83;20769;-88
2021/09/23 05:54:18;;;;;;;;;;;;;;;11.19;82.63;98638.09;1690103;83;20838;-88
2021/09/23 05:56:44;;;;;;;;;;;;;;;11.17;82.61;98632.98;1689461;83;26000;-88
2021/09/23 05:59:10;;;;;;;;;;;;;;;11.22;82.63;98637.91;1691523;83;24379;-88
2021/09/23 06:01:36;;;;;;;;;;;;;;;11.22;82.61;98630.05;1687640;83;20776;-88
2021/09/23 06:04:02;;;;;;;;;;;;;;;11.29;82.59;98632.11;1689708;83;24744;-88
2021/09/23 06:06:38;;;;;;;;;;;;;;;11.35;82.54;98633.47;1690288;83;21974;-88
2021/09/23 06:09:04;;;;;;;;;;;;;;;11.36;82.51;98631.69;1688319;83;26110;-88
2021/09/23 06:11:30;;;;;;;;;;;;;;;11.32;82.50;98627.15;1687498;83;20398;-89
2021/09/23 06:13:56;;;;;;;;;;;;;;;11.29;82.45;98629.99;1687405;83;20238;-88
2021/09/23 06:16:22;;;;;;;;;;;;;;;11.29;82.40;98624.25;1689766;83;24752;-88
2021/09/23 06:18:48;;;;;;;;;;;;;;;11.26;82.41;98615.78;1689762;83;22052;-88
2021/09/23 06:21:16;;;;;;;;;;;;;;;11.29;82.37;98606.41;1688940;83;26052;-88
2021/09/23 06:23:42;;;;;;;;;;;;;;;11.32;82.37;98610.95;1684514;83;24850;-88
2021/09/23 06:26:08;;;;;;;;;;;;;;;11.30;82.34;98604.97;1688478;83;20812;-88
2021/09/23 06:28:34;;;;;;;;;;;;;;;11.30;82.35;98605.45;1689863;83;24702;-88
2021/09/23 06:31:02;;;;;;;;;;;;;;;11.33;82.38;98608.70;1687563;83;20202;-88
2021/09/23 06:33:28;;;;;;;;;;;;;;;11.37;82.39;98608.48;1690079;83;26172;-88
2021/09/23 06:35:54;;;;;;;;;;;;;;;11.39;82.42;98606.59;1689503;83;24421;-88
2021/09/23 06:38:22;;;;;;;;;;;;;;;11.36;82.41;98608.11;1688567;83;20301;-88
2021/09/23 06:40:50;;;;;;;;;;;;;;;11.37;82.44;98601.45;1715374;82;24732;-87
2021/09/23 06:43:16;;;;;;;;;;;;;;;11.43;82.47;98596.26;1658942;84;22014;-88
2021/09/23 06:45:43;;;;;;;;;;;;;;;11.44;82.49;98591.39;1648309;85;26153;-88
2021/09/23 06:48:09;;;;;;;;;;;;;;;11.48;82.52;98590.22;1635243;84;24550;-88
2021/09/23 06:50:35;;;;;;;;;;;;;;;11.48;82.50;98593.67;1648759;85;20635;-88
2021/09/23 06:53:07;;;;;;;;;;;;;;;11.53;82.53;98595.50;1647299;84;25938;-88
2021/09/23 06:55:33;;;;;;;;;;;;;;;11.61;82.55;98596.27;1641394;84;22633;-88
2021/09/23 06:57:59;;;;;;;;;;;;;;;11.67;82.60;98592.72;1655296;84;26659;-88
2021/09/23 07:00:26;;;;;;;;;;;;;;;11.71;82.65;98598.59;1650740;84;20306;-88
2021/09/23 07:02:59;;;;;;;;;;;;;;;11.71;82.64;98605.16;1639540;86;20254;-88
2021/09/23 07:05:28;;;;;;;;;;;;;;;11.75;82.66;98600.08;1646410;85;25375;-88
2021/09/23 07:08:01;;;;;;;;;;;;;;;11.81;82.65;98597.48;1643770;86;22035;-88
2021/09/23 07:10:27;;;;;;;;;;;;;;;11.85;82.70;98601.08;1643891;85;26078;-88
2021/09/23 07:12:55;;;;;;;;;;;;;;;11.92;82.69;98608.04;1658309;86;20291;-88
2021/09/23 07:15:27;;;;;;;;;;;;;;;12.00;82.75;98595.22;1648490;86;20456;-89
2021/09/23 07:17:53;;;;;;;;;;;;;;;12.06;82.80;98597.36;1658747;85;25094;-89
2021/09/23 07:20:19;;;;;;;;;;;;;;;12.11;82.81;98600.02;1648197;85;21976;-89
2021/09/23 07:22:45;;;;;;;;;;;;;;;12.22;82.87;98597.11;1637862;84;20946;-88
2021/09/23 07:25:11;;;;;;;;;;;;;;;12.34;82.94;98591.76;1651399;85;20854;-89
2021/09/23 07:27:39;;;;;;;;;;;;;;;12.47;83.02;98588.59;1643568;86;20519;-89
2021/09/23 07:30:06;;;;;;;;;;;;;;;12.57;83.04;98583.48;1640758;84;24735;-88
2021/09/23 07:32:32;;;;;;;;;;;;;;;12.69;83.08;98576.47;1649089;85;21975;-88
2021/09/23 07:35:00;;;;;;;;;;;;;;;12.75;83.10;98568.97;1652737;84;26093;-89
2021/09/23 07:37:26;;;;;;;;;;;;;;;12.80;83.10;98567.30;1648979;85;24687;-88
2021/09/23 07:39:52;;;;;;;;;;;;;;;12.86;83.08;98566.35;1640885;86;20799;-88
2021/09/23 07:42:18;;;;;;;;;;;;;;;12.94;83.05;98563.11;1656903;85;24736;-88
2021/09/23 07:44:50;;;;;;;;;;;;;;;13.04;83.04;98560.13;1664411;84;20261;-89
2021/09/23 07:47:25;;;;;;;;;;;;;;;13.15;83.04;98561.95;1661472;85;26053;-89
2021/09/23 07:49:52;;;;;;;;;;;;;;;13.21;83.06;98559.69;1666346;84;24518;-88
2021/09/23 07:52:18;;;;;;;;;;;;;;;13.26;83.06;98550.12;1660176;84;20199;-89
2021/09/23 07:54:45;;;;;;;;;;;;;;;13.33;82.97;98552.63;1658241;84;24805;-88
2021/09/23 07:57:12;;;;;;;;;;;;;;;13.43;82.94;98546.16;1656735;84;21942;-88
2021/09/23 07:59:38;;;;;;;;;;;;;;;13.49;82.91;98542.56;1680025;85;26069;-89
2021/09/23 08:02:04;;;;;;;;;;;;;;;13.59;82.84;98553.17;1661173;84;24479;-88
2021/09/23 08:04:30;;;;;;;;;;;;;;;13.67;82.79;98545.52;1659111;84;20283;-89
2021/09/23 08:06:56;;;;;;;;;;;;;;;13.80;82.82;98549.65;1663597;84;24715;-88
2021/09/23 08:09:22;;;;;;;;;;;;;;;13.92;82.76;98549.61;1640755;85;36256;-88
2021/09/23 08:11:51;;;;;;;;;;;;;;;14.01;82.72;98547.56;1663055;84;26058;-88
2021/09/23 08:14:17;;;;;;;;;;;;;;;14.07;82.66;98542.61;1665070;84;24663;-89
2021/09/23 08:16:43;;;;;;;;;;;;;;;14.11;82.57;98534.84;1661463;84;20492;-89
2021/09/23 08:19:10;;;;;;;;;;;;;;;14.15;82.46;98538.04;1662985;84;24996;-89
2021/09/23 08:21:36;;;;;;;;;;;;;;;14.18;82.34;98532.03;1663247;84;22017;-89
2021/09/23 08:24:02;;;;;;;;;;;;;;;14.24;82.26;98535.48;1656709;84;26047;-89
2021/09/23 08:26:28;;;;;;;;;;;;;;;14.26;82.17;98528.78;1656383;84;20918;-88
2021/09/23 08:28:55;;;;;;;;;;;;;;;14.31;82.06;98528.39;1660692;84;20281;-88
2021/09/23 08:31:22;;;;;;;;;;;;;;;14.34;81.94;98517.14;1660394;84;24924;-88
2021/09/23 08:33:49;;;;;;;;;;;;;;;14.34;81.74;98517.62;1658663;84;22190;-88
2021/09/23 08:36:20;;;;;;;;;;;;;;;14.35;81.55;98524.53;1666929;84;26197;-88
2021/09/23 08:38:50;;;;;;;;;;;;;;;14.37;81.36;98527.43;1660801;85;25411;-88
2021/09/23 08:41:25;;;;;;;;;;;;;;;14.44;81.20;98525.96;1659242;84;20273;-88
2021/09/23 08:43:51;;;;;;;;;;;;;;;14.53;81.13;98522.55;1657542;85;24805;-89
2021/09/23 08:46:19;;;;;;;;;;;;;;;14.57;81.01;98532.33;1659682;85;21949;-88
2021/09/23 08:48:45;;;;;;;;;;;;;;;14.59;80.83;98532.56;1658488;85;26073;-89
2021/09/23 08:51:13;;;;;;;;;;;;;;;14.65;80.70;98537.80;1657458;85;20245;-89
2021/09/23 08:53:42;;;;;;;;;;;;;;;14.68;80.59;98538.00;1685734;83;20170;-88
2021/09/23 08:56:13;;;;;;;;;;;;;;;14.68;80.44;98530.94;1657180;85;24731;-88
2021/09/23 08:58:42;;;;;;;;;;;;;;;14.71;80.32;98534.64;1649199;85;22115;-89
2021/09/23 09:01:09;;;;;;;;;;;;;;;14.75;80.23;98533.89;1661907;85;26054;-89
2021/09/23 09:03:36;;;;;;;;;;;;;;;14.80;80.17;98527.27;1655491;85;24533;-89
2021/09/23 09:06:14;;;;;;;;;;;;;;;14.83;80.07;98525.70;1653417;85;20172;-89
2021/09/23 09:08:41;;;;;;;;;;;;;;;14.89;79.99;98512.48;1660441;85;24780;-89
2021/09/23 09:11:11;;;;;;;;;;;;;;;14.95;79.91;98516.72;1658392;85;21517;-89
2021/09/23 09:13:39;;;;;;;;;;;;;;;14.99;79.87;98513.35;1657789;85;26145;-89
2021/09/23 09:16:07;;;;;;;;;;;;;;;15.00;79.77;98515.03;1657516;85;25074;-89
2021/09/23 09:18:33;;;;;;;;;;;;;;;15.00;79.61;98509.75;1659267;84;20297;-89
2021/09/23 09:21:01;;;;;;;;;;;;;;;15.05;79.51;98504.92;1655349;86;24814;-89
2021/09/23 09:23:30;;;;;;;;;;;;;;;15.14;79.45;98503.27;1653979;85;22700;-89
2021/09/23 09:25:56;;;;;;;;;;;;;;;15.24;79.44;98506.28;1659266;84;26307;-89
2021/09/23 09:28:23;;;;;;;;;;;;;;;15.29;79.40;98510.67;1654228;85;20315;-89
2021/09/23 09:30:55;;;;;;;;;;;;;;;15.37;79.35;98500.30;1656415;85;20526;-89
2021/09/23 09:33:23;;;;;;;;;;;;;;;15.37;79.26;98504.25;1657060;85;24929;-89
2021/09/23 09:35:50;;;;;;;;;;;;;;;15.39;79.19;98502.77;1657513;85;22095;-89
2021/09/23 09:38:16;;;;;;;;;;;;;;;15.38;79.09;98491.39;1651897;85;26220;-89
2021/09/23 09:40:43;;;;;;;;;;;;;;;15.36;78.92;98498.63;1654815;85;20274;-89
2021/09/23 09:43:10;;;;;;;;;;;;;;;15.35;78.79;98500.91;1648881;84;20534;-89
2021/09/23 09:45:40;;;;;;;;;;;;;;;15.32;78.67;98503.82;1629184;86;24956;-89
2021/09/23 09:48:07;;;;;;;;;;;;;;;15.35;78.55;98500.06;1631846;86;22300;-89
2021/09/23 09:50:43;;;;;;;;;;;;;;;15.45;78.52;98488.56;1634316;86;25586;-89
2021/09/23 09:53:11;;;;;;;;;;;;;;;15.56;78.49;98496.88;1628636;86;24430;-89
2021/09/23 09:55:45;;;;;;;;;;;;;;;15.67;78.45;98494.11;1634353;86;20171;-89
2021/09/23 09:58:13;;;;;;;;;;;;;;;15.79;78.41;98494.81;1632838;86;24759;-88
2021/09/23 10:00:41;;;;;;;;;;;;;;;15.89;78.39;98489.89;1633819;86;22816;-88
2021/09/23 10:03:07;;;;;;;;;;;;;;;15.96;78.30;98477.45;1634897;86;25865;-89
2021/09/23 10:05:33;;;;;;;;;;;;;;;16.00;78.22;98469.11;1636101;86;20869;-89
2021/09/23 10:08:00;;;;;;;;;;;;;;;16.03;78.09;98468.84;1633152;86;20236;-88
2021/09/23 10:10:32;;;;;;;;;;;;;;;16.07;77.97;98458.83;1631427;86;24776;-88
2021/09/23 10:12:59;;;;;;;;;;;;;;;16.14;77.93;98456.81;1630558;86;22028;-89
2021/09/23 10:15:25;;;;;;;;;;;;;;;16.23;77.79;98448.03;1637945;86;26634;-88
2021/09/23 10:17:53;;;;;;;;;;;;;;;16.21;77.57;98433.30;1636285;86;24597;-88
2021/09/23 10:20:22;;;;;;;;;;;;;;;16.13;77.32;98437.98;1638757;86;20299;-89
2021/09/23 10:22:49;;;;;;;;;;;;;;;16.06;77.07;98435.55;1636412;86;24824;-89
2021/09/23 10:25:16;;;;;;;;;;;;;;;16.05;76.87;98439.16;1635499;86;21828;-89
2021/09/23 10:28:06;;;;;;;;;;;;;;;16.03;76.72;98431.89;1637401;86;26196;-88
2021/09/23 10:30:35;;;;;;;;;;;;;;;16.01;76.58;98436.47;1637537;86;25247;-89
2021/09/23 10:33:10;;;;;;;;;;;;;;;16.05;76.47;98439.64;1637470;86;20224;-89
2021/09/23 10:35:37;;;;;;;;;;;;;;;16.11;76.42;98438.59;1655594;84;24704;-89
2021/09/23 10:38:05;;;;;;;;;;;;;;;16.19;76.38;98433.94;1623843;86;21619;-89
2021/09/23 10:40:31;;;;;;;;;;;;;;;16.25;76.31;98430.73;1627518;86;26688;-88
2021/09/23 10:43:01;;;;;;;;;;;;;;;16.36;76.30;98417.36;1627663;86;24647;-88
2021/09/23 10:45:28;;;;;;;;;;;;;;;16.33;76.16;98416.31;1640872;86;20231;-89
2021/09/23 10:47:59;;;;;;;;;;;;;;;16.30;75.96;98416.13;1649362;86;25510;-88
2021/09/23 10:50:28;;;;;;;;;;;;;;;16.26;75.76;98414.73;1651026;85;22078;-89
2021/09/23 10:53:09;;;;;;;;;;;;;;;16.26;75.57;98412.09;1643259;85;26078;-89
2021/09/23 10:55:37;;;;;;;;;;;;;;;16.25;75.42;98411.77;1645524;86;24613;-88
2021/09/23 10:58:04;;;;;;;;;;;;;;;16.22;75.20;98412.52;1685371;83;20226;-88
2021/09/23 11:00:34;;;;;;;;;;;;;;;16.18;75.02;98413.30;1668809;85;24788;-88
2021/09/23 11:03:12;;;;;;;;;;;;;;;16.18;74.91;98407.19;1643833;86;22231;-89
2021/09/23 11:05:39;;;;;;;;;;;;;;;16.19;74.78;98403.09;1685396;83;26019;-89
2021/09/23 11:08:17;;;;;;;;;;;;;;;16.24;74.66;98413.22;1682727;83;25125;-88
2021/09/23 11:10:41;;;;;;;;;;;;;;;16.31;74.56;98407.69;1680710;84;20182;-89
2021/09/23 11:13:11;;;;;;;;;;;;;;;16.38;74.43;98404.83;1676997;84;24827;-89
2021/09/23 11:15:39;;;;;;;;;;;;;;;16.42;74.32;98394.30;1678446;84;22065;-88
2021/09/23 11:18:06;;;;;;;;;;;;;;;16.41;74.16;98387.38;1650865;85;26097;-89
2021/09/23 11:20:33;;;;;;;;;;;;;;;16.48;74.06;98383.66;1656513;84;24541;-89
2021/09/23 11:23:06;;;;;;;;;;;;;;;16.56;74.01;98379.81;1681906;83;20534;-89
2021/09/23 11:25:34;;;;;;;;;;;;;;;16.63;73.90;98376.97;1682532;83;24806;-89
2021/09/23 11:28:02;;;;;;;;;;;;;;;16.72;73.84;98368.14;1674262;84;21955;-89
2021/09/23 11:30:29;;;;;;;;;;;;;;;16.73;73.75;98366.69;1657945;85;26726;-89
2021/09/23 11:33:00;;;;;;;;;;;;;;;16.71;73.67;98365.16;1651901;85;24590;-89
2021/09/23 11:35:30;;;;;;;;;;;;;;;16.68;73.53;98370.75;1653060;86;20221;-89
2021/09/23 11:37:59;;;;;;;;;;;;;;;16.62;73.32;98366.05;1688738;83;20527;-89
2021/09/23 11:40:27;;;;;;;;;;;;;;;16.59;73.18;98369.80;1689507;83;21966;-89
2021/09/23 11:42:53;;;;;;;;;;;;;;;16.58;73.05;98373.90;1687297;83;26055;-89
2021/09/23 11:45:21;;;;;;;;;;;;;;;16.61;72.97;98370.50;1659262;85;24622;-89
2021/09/23 11:47:54;;;;;;;;;;;;;;;16.67;72.83;98352.73;1653312;85;20223;-89
2021/09/23 11:50:28;;;;;;;;;;;;;;;16.75;72.75;98355.95;1651507;85;24735;-89
2021/09/23 11:52:56;;;;;;;;;;;;;;;16.84;72.71;98347.15;1654640;85;22045;-89
2021/09/23 11:55:28;;;;;;;;;;;;;;;16.95;72.71;98331.56;1652354;84;25584;-89
2021/09/23 11:58:02;;;;;;;;;;;;;;;16.93;72.60;98330.39;1653178;84;24418;-89
2021/09/23 12:00:33;;;;;;;;;;;;;;;16.91;72.47;98333.66;1657385;85;20251;-89
2021/09/23 12:02:59;;;;;;;;;;;;;;;16.87;72.34;98317.77;1652441;85;24840;-89
2021/09/23 12:05:26;;;;;;;;;;;;;;;16.83;72.16;98310.28;1651937;85;20975;-89
2021/09/23 12:07:52;;;;;;;;;;;;;;;16.81;71.99;98306.46;1653674;84;25993;-89
2021/09/23 12:10:21;;;;;;;;;;;;;;;16.84;71.93;98300.89;1655817;85;20361;-88
2021/09/23 12:12:50;;;;;;;;;;;;;;;16.89;71.87;98288.55;1648007;85;20457;-88
2021/09/23 12:15:18;;;;;;;;;;;;;;;16.92;71.82;98278.98;1629869;86;24770;-89
2021/09/23 12:17:49;;;;;;;;;;;;;;;16.94;71.74;98276.54;1654658;85;22792;-88
2021/09/23 12:20:15;;;;;;;;;;;;;;;16.95;71.70;98272.92;1652865;85;26030;-89
2021/09/23 12:22:42;;;;;;;;;;;;;;;16.99;71.64;98266.83;1653427;85;24501;-89
2021/09/23 12:25:14;;;;;;;;;;;;;;;17.00;71.56;98259.23;1651755;85;20301;-89
2021/09/23 12:27:40;;;;;;;;;;;;;;;17.05;71.52;98261.77;1650975;85;24945;-88
2021/09/23 12:30:06;;;;;;;;;;;;;;;17.13;71.54;98257.86;1651175;85;22052;-88
2021/09/23 12:32:34;;;;;;;;;;;;;;;17.19;71.54;98242.36;1653742;85;26031;-88
2021/09/23 12:35:17;;;;;;;;;;;;;;;17.23;71.48;98241.09;1652949;85;25238;-88
2021/09/23 12:37:45;;;;;;;;;;;;;;;17.19;71.33;98233.10;1657806;85;20317;-89
2021/09/23 12:40:13;;;;;;;;;;;;;;;17.20;71.22;98228.99;1650758;85;24774;-89
2021/09/23 12:42:41;;;;;;;;;;;;;;;17.21;71.15;98229.83;1653268;85;22670;-88
2021/09/23 12:45:15;;;;;;;;;;;;;;;17.22;71.04;98223.56;1680449;82;26212;-89
2021/09/23 12:47:48;;;;;;;;;;;;;;;17.23;70.92;98225.22;1698497;83;25322;-89
2021/09/23 12:50:14;;;;;;;;;;;;;;;17.26;70.85;98223.09;1698638;83;20450;-89
2021/09/23 12:52:43;;;;;;;;;;;;;;;17.28;70.76;98219.81;1701689;83;24885;-88